This is the latest recevied weather packets stored in our database for station/object KR4KUV. If no packets are shown the sender has not sent any weather packets the latest 10 day(s).
| Time | Temp. | Humidity | Pressure | Rain* | Wind** | Luminosity | Snow |
|---|---|---|---|---|---|---|---|
| 1787433544 | 28.33° C | 76% | 1015.3 hPa | 0 mm | - | 394 W/m² | - |
| 1787433239 | 27.78° C | 78% | 1015.1 hPa | 0 mm | - | 133 W/m² | - |
| 1787432936 | 28.33° C | 76% | 1015.1 hPa | 0 mm | - | 167 W/m² | - |
| 1787432631 | 28.33° C | 75% | 1015.4 hPa | 0 mm | - | 215 W/m² | - |
| 1787432324 | 27.78° C | 76% | 1015.4 hPa | 0 mm | - | 366 W/m² | - |
| 1787432021 | 28.89° C | 72% | 1015.6 hPa | 0 mm | - | 300 W/m² | - |
| 1787431719 | 28.89° C | 74% | 1015.4 hPa | 0 mm | - | 567 W/m² | - |
| 1787431415 | 28.33° C | 75% | 1015.5 hPa | 0 mm | - | 558 W/m² | - |
| 1787431111 | 28.33° C | 78% | 1015.4 hPa | 0 mm | - | 583 W/m² | - |
| 1787430807 | 27.22° C | 80% | 1015.5 hPa | 0 mm | - | 597 W/m² | - |
| 1787430502 | 27.22° C | 78% | 1015.6 hPa | 0 mm | - | 154 W/m² | - |
| 1787430199 | 27.22° C | 79% | 1015.7 hPa | 0 mm | - | 565 W/m² | - |
| 1787429895 | 27.22° C | 80% | 1015.8 hPa | 0 mm | - | 552 W/m² | - |
| 1787429589 | 27.22° C | 79% | 1015.7 hPa | 0 mm | - | 174 W/m² | - |
| 1787429286 | 27.22° C | 79% | 1016 hPa | 0 mm | - | 160 W/m² | - |
| 1787428981 | 27.22° C | 80% | 1016.1 hPa | 0 mm | - | 549 W/m² | - |
| 1787428676 | 27.22° C | 79% | 1016.3 hPa | 0 mm | - | 154 W/m² | - |
| 1787428371 | 27.78° C | 78% | 1016.4 hPa | 0 mm | - | 209 W/m² | - |
| 1787428066 | 27.78° C | 77% | 1016.4 hPa | 0 mm | - | 629 W/m² | - |
| 1787427761 | 27.22° C | 79% | 1016.5 hPa | 0 mm | - | 627 W/m² | - |
| 1787427457 | 26.67° C | 81% | 1016.4 hPa | 0 mm | - | 339 W/m² | - |
| 1787427153 | 27.22° C | 77% | 1016.5 hPa | 0 mm | - | 206 W/m² | - |
| 1787426848 | 27.22° C | 78% | 1016.7 hPa | 0 mm | - | 272 W/m² | - |
| 1787426543 | 27.78° C | 78% | 1016.8 hPa | 0 mm | - | 264 W/m² | - |
| 1787426241 | 26.67° C | 80% | 1016.8 hPa | 0 mm | - | 262 W/m² | - |
* Rain latest hour (hover to see other rain measurements)
** Current wind speed in m/s (hover to see current wind gust speed)